Time;durP1;ratioP1;P1;durP2;ratioP2;P2;SDS_P1;SDS_P2;PMS_P1;PMS_P2;Temp;Humidity;BMP_temperature;BMP_pressure;BME280_temperature;BME280_humidity;BME280_pressure;Samples;Min_cycle;Max_cycle;Signal;HPM_P1;HPM_P2
2022/07/15 00:00:15;;;;;;;3.88;3.10;;;;;;;;;;7404102;19;20212;-78
2022/07/15 00:02:40;;;;;;;3.78;3.13;;;;;;;;;;7380106;19;20196;-79
2022/07/15 00:05:06;;;;;;;3.67;3.20;;;;;;;;;;7372526;19;20141;-77
2022/07/15 00:07:32;;;;;;;5.88;3.28;;;;;;;;;;7378353;19;20453;-76
2022/07/15 00:10:18;;;;;;;4.30;2.80;;;;;;;;;;7376338;19;20470;-76
2022/07/15 00:12:46;;;;;;;4.47;3.47;;;;;;;;;;7376781;19;20799;-76
2022/07/15 00:15:12;;;;;;;3.42;2.90;;;;;;;;;;7382174;19;20167;-77
2022/07/15 00:17:37;;;;;;;3.58;2.65;;;;;;;;;;7377081;19;20144;-77
2022/07/15 00:20:03;;;;;;;5.05;3.33;;;;;;;;;;7372343;19;20603;-78
2022/07/15 00:22:28;;;;;;;5.78;3.63;;;;;;;;;;7375765;19;20187;-79
2022/07/15 00:24:54;;;;;;;3.90;3.13;;;;;;;;;;7375136;19;20746;-77
2022/07/15 00:27:19;;;;;;;3.67;2.85;;;;;;;;;;7377264;19;20197;-78
2022/07/15 00:29:44;;;;;;;4.50;3.00;;;;;;;;;;7373324;19;20121;-76
2022/07/15 00:32:10;;;;;;;3.50;2.85;;;;;;;;;;7376718;19;20145;-77
2022/07/15 00:34:36;;;;;;;3.70;3.15;;;;;;;;;;7378874;19;20124;-77
2022/07/15 00:37:01;;;;;;;5.78;3.13;;;;;;;;;;7368221;19;20166;-80
2022/07/15 00:39:27;;;;;;;5.00;2.83;;;;;;;;;;7377410;19;20148;-77
2022/07/15 00:41:52;;;;;;;3.35;3.05;;;;;;;;;;7373727;19;20632;-76
2022/07/15 00:44:17;;;;;;;5.82;3.20;;;;;;;;;;7377155;19;20125;-81
2022/07/15 00:46:43;;;;;;;6.70;3.17;;;;;;;;;;7366608;19;20132;-78
2022/07/15 00:49:09;;;;;;;4.38;2.80;;;;;;;;;;7365818;19;20176;-76
2022/07/15 00:51:43;;;;;;;3.58;2.72;;;;;;;;;;7372769;19;20176;-77
2022/07/15 00:54:10;;;;;;;4.63;2.97;;;;;;;;;;7387085;19;20124;-77
2022/07/15 00:56:38;;;;;;;5.00;2.70;;;;;;;;;;7379814;19;20148;-79
2022/07/15 00:59:05;;;;;;;5.28;3.10;;;;;;;;;;7378004;19;20152;-79
2022/07/15 01:01:31;;;;;;;3.22;2.92;;;;;;;;;;7378426;19;20477;-77
2022/07/15 01:03:57;;;;;;;5.30;2.95;;;;;;;;;;7373683;19;20200;-79
2022/07/15 01:06:23;;;;;;;3.80;2.90;;;;;;;;;;7378057;19;20638;-76
2022/07/15 01:08:50;;;;;;;4.15;3.00;;;;;;;;;;7380020;19;20200;-77
2022/07/15 01:11:15;;;;;;;4.03;2.90;;;;;;;;;;7370723;19;20176;-77
2022/07/15 01:13:41;;;;;;;3.38;2.67;;;;;;;;;;7378313;19;20132;-80
2022/07/15 01:16:06;;;;;;;3.20;2.80;;;;;;;;;;7368386;19;20121;-80
2022/07/15 01:18:32;;;;;;;5.10;2.88;;;;;;;;;;7371741;19;20129;-78
2022/07/15 01:20:57;;;;;;;4.53;2.92;;;;;;;;;;7373132;19;20153;-78
2022/07/15 01:23:22;;;;;;;5.40;3.10;;;;;;;;;;7372976;19;20141;-77
2022/07/15 01:25:48;;;;;;;4.00;2.88;;;;;;;;;;7382523;19;20149;-77
2022/07/15 01:28:13;;;;;;;4.93;2.60;;;;;;;;;;7379960;19;20125;-80
2022/07/15 01:30:39;;;;;;;3.38;3.03;;;;;;;;;;7370417;19;20187;-77
2022/07/15 01:33:04;;;;;;;3.72;2.83;;;;;;;;;;7377539;19;20506;-77
2022/07/15 01:35:30;;;;;;;4.53;2.95;;;;;;;;;;7379250;19;20139;-78
2022/07/15 01:37:55;;;;;;;4.38;2.80;;;;;;;;;;7372862;19;20148;-77
2022/07/15 01:40:20;;;;;;;3.97;2.92;;;;;;;;;;7370122;19;20149;-82
2022/07/15 01:42:46;;;;;;;5.45;2.95;;;;;;;;;;7364873;19;20145;-79
2022/07/15 01:45:11;;;;;;;6.40;3.20;;;;;;;;;;7374996;19;20125;-78
2022/07/15 01:47:48;;;;;;;4.70;2.95;;;;;;;;;;7378842;19;20152;-77
2022/07/15 01:50:14;;;;;;;3.20;2.80;;;;;;;;;;7381722;19;20148;-80
2022/07/15 01:52:39;;;;;;;3.35;2.78;;;;;;;;;;7375948;19;20145;-77
2022/07/15 01:55:06;;;;;;;6.60;3.40;;;;;;;;;;7383704;19;20221;-77
2022/07/15 01:57:32;;;;;;;6.32;2.90;;;;;;;;;;7382578;19;20129;-76
2022/07/15 01:59:57;;;;;;;5.28;3.47;;;;;;;;;;7382019;19;20165;-77
2022/07/15 02:02:22;;;;;;;5.00;3.10;;;;;;;;;;7374159;19;20152;-82
2022/07/15 02:04:48;;;;;;;3.05;2.80;;;;;;;;;;7376604;19;20213;-77
2022/07/15 02:07:14;;;;;;;7.40;3.13;;;;;;;;;;7376816;19;23091;-78
2022/07/15 02:09:39;;;;;;;4.00;2.90;;;;;;;;;;7382347;19;20141;-76
2022/07/15 02:12:06;;;;;;;5.03;2.90;;;;;;;;;;7381758;19;20152;-76
2022/07/15 02:14:31;;;;;;;2.97;2.65;;;;;;;;;;7385331;19;20204;-80
2022/07/15 02:16:57;;;;;;;3.58;2.90;;;;;;;;;;7388926;19;20173;-77
2022/07/15 02:19:22;;;;;;;5.25;2.75;;;;;;;;;;7390409;19;20140;-79
2022/07/15 02:21:47;;;;;;;4.72;2.92;;;;;;;;;;7384573;19;20137;-80
2022/07/15 02:24:13;;;;;;;3.42;2.92;;;;;;;;;;7377453;19;20156;-77
2022/07/15 02:26:39;;;;;;;8.55;2.95;;;;;;;;;;7372434;19;20630;-77
2022/07/15 02:29:04;;;;;;;6.32;2.78;;;;;;;;;;7371934;19;20113;-81
2022/07/15 02:31:30;;;;;;;4.13;2.75;;;;;;;;;;7379095;19;20611;-79
2022/07/15 02:33:55;;;;;;;3.80;2.92;;;;;;;;;;7383059;19;20137;-77
2022/07/15 02:36:21;;;;;;;3.42;2.67;;;;;;;;;;7379344;19;20463;-78
2022/07/15 02:38:46;;;;;;;3.45;3.15;;;;;;;;;;7382959;19;20128;-79
2022/07/15 02:41:12;;;;;;;5.32;3.38;;;;;;;;;;7374322;19;20179;-78
2022/07/15 02:43:38;;;;;;;4.05;3.05;;;;;;;;;;7377098;19;20145;-77
2022/07/15 02:46:03;;;;;;;3.95;2.90;;;;;;;;;;7383803;19;20144;-77
2022/07/15 02:48:28;;;;;;;5.60;2.92;;;;;;;;;;7374916;19;20149;-78
2022/07/15 02:50:54;;;;;;;3.28;2.78;;;;;;;;;;7378147;19;20216;-77
2022/07/15 02:53:21;;;;;;;3.05;2.70;;;;;;;;;;7374568;19;20125;-76
2022/07/15 02:55:48;;;;;;;5.88;2.85;;;;;;;;;;7378439;19;20324;-77
2022/07/15 02:58:13;;;;;;;5.50;3.30;;;;;;;;;;7377138;19;20883;-77
2022/07/15 03:00:38;;;;;;;4.60;2.88;;;;;;;;;;7372301;19;20145;-79
2022/07/15 03:03:04;;;;;;;5.15;3.10;;;;;;;;;;7380067;19;20188;-79
2022/07/15 03:05:29;;;;;;;4.97;2.65;;;;;;;;;;7373952;19;20145;-82
2022/07/15 03:07:54;;;;;;;4.00;3.38;;;;;;;;;;7379434;19;20615;-77
2022/07/15 03:10:20;;;;;;;4.07;3.05;;;;;;;;;;7377393;19;20643;-79
2022/07/15 03:12:45;;;;;;;3.38;3.08;;;;;;;;;;7375048;19;20139;-81
2022/07/15 03:15:13;;;;;;;3.55;2.97;;;;;;;;;;7374656;19;20144;-79
2022/07/15 03:17:42;;;;;;;4.10;3.00;;;;;;;;;;7377435;19;20133;-79
2022/07/15 03:20:09;;;;;;;4.82;3.22;;;;;;;;;;7377260;19;20171;-76
2022/07/15 03:22:34;;;;;;;7.30;3.13;;;;;;;;;;7381487;19;20220;-76
2022/07/15 03:24:59;;;;;;;4.15;3.28;;;;;;;;;;7374530;19;20482;-76
2022/07/15 03:27:25;;;;;;;4.75;2.97;;;;;;;;;;7367089;19;20515;-76
2022/07/15 03:29:50;;;;;;;5.43;2.80;;;;;;;;;;7375476;19;20137;-77
2022/07/15 03:32:16;;;;;;;3.38;3.08;;;;;;;;;;7377497;19;20164;-78
2022/07/15 03:34:43;;;;;;;5.95;3.00;;;;;;;;;;7379080;19;20156;-76
2022/07/15 03:37:08;;;;;;;4.30;2.83;;;;;;;;;;7378225;19;20168;-81
2022/07/15 03:39:33;;;;;;;5.38;3.22;;;;;;;;;;7378779;19;20145;-79
2022/07/15 03:41:59;;;;;;;6.10;3.35;;;;;;;;;;7377533;19;20189;-80
2022/07/15 03:44:24;;;;;;;4.43;2.97;;;;;;;;;;7389323;19;20194;-76
2022/07/15 03:46:49;;;;;;;4.85;2.88;;;;;;;;;;7377825;19;20142;-77
2022/07/15 03:49:15;;;;;;;3.83;3.28;;;;;;;;;;7381362;19;20145;-82
2022/07/15 03:51:41;;;;;;;5.10;3.33;;;;;;;;;;7378556;19;20517;-77
2022/07/15 03:54:09;;;;;;;4.63;3.22;;;;;;;;;;7378947;19;20132;-77
2022/07/15 03:56:35;;;;;;;4.75;3.00;;;;;;;;;;7370412;19;20129;-77
2022/07/15 03:59:00;;;;;;;11.63;3.22;;;;;;;;;;7377440;19;20125;-77
2022/07/15 04:01:26;;;;;;;5.70;2.95;;;;;;;;;;7387227;19;20164;-78
2022/07/15 04:03:52;;;;;;;8.57;3.67;;;;;;;;;;7384561;19;20117;-80
2022/07/15 04:06:18;;;;;;;5.60;3.30;;;;;;;;;;7384524;19;20458;-78
2022/07/15 04:08:44;;;;;;;7.03;3.35;;;;;;;;;;7386555;19;20571;-79
2022/07/15 04:11:11;;;;;;;5.50;3.50;;;;;;;;;;7382916;19;20159;-80
2022/07/15 04:13:36;;;;;;;5.07;2.80;;;;;;;;;;7385393;19;20148;-79
2022/07/15 04:16:02;;;;;;;7.90;3.85;;;;;;;;;;7386717;19;20145;-81
2022/07/15 04:18:27;;;;;;;6.25;3.72;;;;;;;;;;7384826;19;20149;-77
2022/07/15 04:20:53;;;;;;;5.47;3.42;;;;;;;;;;7382619;19;20200;-77
2022/07/15 04:23:18;;;;;;;8.52;3.63;;;;;;;;;;7388020;19;20129;-80
2022/07/15 04:25:43;;;;;;;4.45;3.10;;;;;;;;;;7386460;19;20564;-77
2022/07/15 04:28:09;;;;;;;4.10;3.38;;;;;;;;;;7381113;19;20618;-77
2022/07/15 04:30:34;;;;;;;5.70;3.60;;;;;;;;;;7385248;19;20125;-76
2022/07/15 04:33:00;;;;;;;8.25;3.53;;;;;;;;;;7383835;19;20141;-77
2022/07/15 04:35:25;;;;;;;9.05;3.83;;;;;;;;;;7382899;19;20452;-77
2022/07/15 04:37:51;;;;;;;5.63;3.13;;;;;;;;;;7377151;19;20473;-81
2022/07/15 04:40:16;;;;;;;7.35;3.55;;;;;;;;;;7381742;19;20210;-76
2022/07/15 04:42:41;;;;;;;5.03;2.90;;;;;;;;;;7383278;19;20137;-79
2022/07/15 04:45:07;;;;;;;5.43;3.30;;;;;;;;;;7380665;19;20163;-80
2022/07/15 04:47:33;;;;;;;4.93;3.40;;;;;;;;;;7382217;19;20293;-76
2022/07/15 04:52:43;;;;;;;8.88;3.38;;;;;;;;;;7384940;19;20617;-77
2022/07/15 04:55:08;;;;;;;7.90;3.47;;;;;;;;;;7381931;19;20502;-77
2022/07/15 04:57:34;;;;;;;6.82;3.38;;;;;;;;;;7385743;19;20146;-79
2022/07/15 04:59:59;;;;;;;6.30;3.70;;;;;;;;;;7394315;19;20125;-77
2022/07/15 05:02:25;;;;;;;7.20;3.40;;;;;;;;;;7390573;19;20183;-82
2022/07/15 05:04:50;;;;;;;6.63;3.22;;;;;;;;;;7392543;19;20140;-78
2022/07/15 05:07:16;;;;;;;7.50;3.83;;;;;;;;;;7394377;19;20163;-81
2022/07/15 05:09:41;;;;;;;7.18;3.63;;;;;;;;;;7393907;19;20717;-77
2022/07/15 05:12:07;;;;;;;6.82;3.58;;;;;;;;;;7392309;19;20204;-77
2022/07/15 05:14:32;;;;;;;5.68;3.80;;;;;;;;;;7380188;19;20129;-80
2022/07/15 05:16:57;;;;;;;5.20;3.88;;;;;;;;;;7386043;19;20124;-79
2022/07/15 05:19:22;;;;;;;8.20;3.50;;;;;;;;;;7373379;19;20136;-78
2022/07/15 05:21:48;;;;;;;6.80;3.60;;;;;;;;;;7377228;19;20148;-79
2022/07/15 05:24:13;;;;;;;5.15;3.00;;;;;;;;;;7374367;19;20208;-81
2022/07/15 05:26:38;;;;;;;3.97;3.13;;;;;;;;;;7376812;19;20119;-81
2022/07/15 05:29:04;;;;;;;7.60;3.28;;;;;;;;;;7384302;19;20124;-81
2022/07/15 05:31:29;;;;;;;5.32;3.17;;;;;;;;;;7372639;19;20517;-81
2022/07/15 05:33:54;;;;;;;9.25;3.75;;;;;;;;;;7378547;19;20145;-80
2022/07/15 05:36:20;;;;;;;5.60;3.40;;;;;;;;;;7376444;19;20535;-79
2022/07/15 05:38:45;;;;;;;8.43;3.17;;;;;;;;;;7374869;19;20811;-77
2022/07/15 05:41:11;;;;;;;6.70;3.75;;;;;;;;;;7367559;19;20172;-78
2022/07/15 05:43:37;;;;;;;8.45;4.10;;;;;;;;;;7374922;19;20520;-77
2022/07/15 05:46:02;;;;;;;6.85;3.22;;;;;;;;;;7376089;19;20154;-77
2022/07/15 17:40:24;;;;;;;6.25;3.83;;;;;;;;;;7375390;19;20379;-79
2022/07/15 17:42:49;;;;;;;4.55;3.13;;;;;;;;;;7385970;19;21623;-78
2022/07/15 17:45:14;;;;;;;4.10;3.50;;;;;;;;;;7384473;19;20204;-79
2022/07/15 17:47:40;;;;;;;4.43;3.35;;;;;;;;;;7388415;19;20144;-79
2022/07/15 17:50:05;;;;;;;4.18;3.30;;;;;;;;;;7388527;19;20205;-78
2022/07/15 17:52:32;;;;;;;3.65;3.22;;;;;;;;;;7381184;19;20176;-79
2022/07/15 17:54:57;;;;;;;3.85;3.00;;;;;;;;;;7385022;19;20164;-79
2022/07/15 17:57:23;;;;;;;3.50;2.60;;;;;;;;;;7378134;19;20487;-79
2022/07/15 17:59:48;;;;;;;4.75;3.25;;;;;;;;;;7391434;19;20475;-80
2022/07/15 18:02:14;;;;;;;3.20;3.00;;;;;;;;;;7376110;19;20145;-80
2022/07/15 18:04:39;;;;;;;3.63;2.95;;;;;;;;;;7383218;19;20576;-78
2022/07/15 18:07:04;;;;;;;3.72;3.08;;;;;;;;;;7384555;19;20180;-78
2022/07/15 18:09:30;;;;;;;5.28;3.70;;;;;;;;;;7401572;19;20140;-79
2022/07/15 18:11:55;;;;;;;4.63;4.03;;;;;;;;;;7381303;19;20148;-78
2022/07/15 18:14:21;;;;;;;5.10;3.65;;;;;;;;;;7378672;19;20145;-78
2022/07/15 18:16:46;;;;;;;5.43;3.13;;;;;;;;;;7387079;19;20164;-79
2022/07/15 18:19:12;;;;;;;4.88;3.90;;;;;;;;;;7397845;19;20196;-80
2022/07/15 18:21:38;;;;;;;3.42;3.13;;;;;;;;;;7393730;19;20180;-81
2022/07/15 18:24:04;;;;;;;3.67;2.97;;;;;;;;;;7405022;19;20156;-80
2022/07/15 18:26:29;;;;;;;3.50;3.20;;;;;;;;;;7405280;19;20145;-81
2022/07/15 18:28:54;;;;;;;5.85;3.38;;;;;;;;;;7409963;19;20453;-82
2022/07/15 18:31:20;;;;;;;5.22;3.40;;;;;;;;;;7395464;19;20239;-80
2022/07/15 18:33:45;;;;;;;4.18;3.35;;;;;;;;;;7386528;19;20160;-80
2022/07/15 18:36:10;;;;;;;5.50;3.20;;;;;;;;;;7398142;19;20475;-80
